Time;durP1;ratioP1;P1;durP2;ratioP2;P2;SDS_P1;SDS_P2;PMS_P1;PMS_P2;Temp;Humidity;BMP_temperature;BMP_pressure;BME280_temperature;BME280_humidity;BME280_pressure;Samples;Min_cycle;Max_cycle;Signal;HPM_P1;HPM_P2
2021/01/24 00:02:13;;;;;;;28.73;18.42;;;307.60;1484.80;;;;;;4918192;29;20042;-72
2021/01/24 00:04:39;;;;;;;32.35;18.33;;;307.50;1484.80;;;;;;4918092;29;20024;-73
2021/01/24 00:07:05;;;;;;;31.00;19.30;;;307.60;1459.20;;;;;;4918250;29;20398;-69
2021/01/24 00:09:31;;;;;;;26.63;16.73;;;307.60;1459.20;;;;;;4918480;29;20027;-73
2021/01/24 00:11:56;;;;;;;26.10;15.93;;;307.60;1459.20;;;;;;4918345;29;20036;-69
2021/01/24 00:14:22;;;;;;;26.50;16.00;;;307.40;1459.20;;;;;;4918459;29;20454;-71
2021/01/24 00:16:48;;;;;;;26.85;15.88;;;307.40;1484.80;;;;;;4918241;29;20033;-71
2021/01/24 00:19:13;;;;;;;36.00;19.73;;;307.30;1459.20;;;;;;4918128;29;20035;-72
2021/01/24 00:21:39;;;;;;;46.38;25.27;;;307.30;1459.20;;;;;;4918281;29;20036;-71
2021/01/24 00:24:06;;;;;;;35.30;21.45;;;307.30;1484.80;;;;;;4918208;29;20079;-72
2021/01/24 00:26:31;;;;;;;33.63;19.50;;;307.30;1484.80;;;;;;4917953;29;20115;-69
2021/01/24 00:28:57;;;;;;;33.75;19.10;;;307.30;1459.20;;;;;;4917919;29;20451;-69
2021/01/24 00:31:23;;;;;;;42.90;26.02;;;307.40;1459.20;;;;;;4918024;29;20024;-70
2021/01/24 00:33:49;;;;;;;50.83;27.15;;;307.50;1459.20;;;;;;4917769;29;20115;-71
2021/01/24 00:36:16;;;;;;;53.20;29.23;;;307.60;1433.60;;;;;;4918024;29;20043;-69
2021/01/24 00:38:42;;;;;;;47.90;25.48;;;307.50;1433.60;;;;;;4918044;29;20048;-72
2021/01/24 00:41:09;;;;;;;40.58;24.33;;;307.50;1433.60;;;;;;4917693;29;20403;-73
2021/01/24 00:43:34;;;;;;;32.75;20.77;;;307.50;1433.60;;;;;;4917841;29;20032;-72
2021/01/24 00:46:01;;;;;;;33.47;18.80;;;307.50;1433.60;;;;;;4917756;29;20032;-73
2021/01/24 00:48:26;;;;;;;27.42;13.85;;;282.50;1433.60;;;;;;4917720;29;20024;-72
2021/01/24 00:50:52;;;;;;;28.02;16.08;;;307.20;1459.20;;;;;;4917357;29;20230;-71
2021/01/24 00:53:18;;;;;;;21.27;12.70;;;282.40;1459.20;;;;;;4917835;29;20493;-72
2021/01/24 00:55:45;;;;;;;20.95;12.70;;;282.20;1484.80;;;;;;4916759;29;20048;-70
2021/01/24 00:58:11;;;;;;;19.98;11.50;;;282.40;1459.20;;;;;;4917286;29;20036;-77
2021/01/24 01:00:37;;;;;;;22.83;12.80;;;282.40;1459.20;;;;;;4917237;29;20079;-69
2021/01/24 01:03:04;;;;;;;16.45;9.07;;;307.20;1459.20;;;;;;4917064;29;20024;-76
2021/01/24 01:05:29;;;;;;;18.25;10.32;;;307.30;1433.60;;;;;;4917005;29;20613;-73
2021/01/24 01:07:55;;;;;;;13.25;8.10;;;282.50;1433.60;;;;;;4917071;29;20032;-71
2021/01/24 01:10:20;;;;;;;12.60;6.97;;;282.40;1433.60;;;;;;4917655;29;20027;-71
2021/01/24 01:12:48;;;;;;;12.45;7.10;;;282.50;1433.60;;;;;;4917431;29;20076;-71
2021/01/24 01:15:14;;;;;;;28.63;15.32;;;307.20;1433.60;;;;;;4917284;29;20025;-69
2021/01/24 01:17:40;;;;;;;33.55;18.38;;;307.30;1433.60;;;;;;4917271;29;20431;-73
2021/01/24 01:20:06;;;;;;;36.97;20.13;;;307.50;1408.00;;;;;;4917173;29;20120;-74
2021/01/24 01:22:32;;;;;;;21.63;11.02;;;307.30;1433.60;;;;;;4917259;29;20031;-68
2021/01/24 01:24:57;;;;;;;18.50;9.93;;;307.40;1408.00;;;;;;4916662;29;20115;-68
2021/01/24 01:27:23;;;;;;;17.02;9.57;;;307.30;1408.00;;;;;;4917110;29;20028;-70
2021/01/24 01:29:49;;;;;;;24.90;12.65;;;307.30;1433.60;;;;;;4917373;29;20032;-68
2021/01/24 01:32:15;;;;;;;39.67;21.58;;;282.30;1433.60;;;;;;4917208;29;20119;-72
2021/01/24 01:34:40;;;;;;;39.80;23.88;;;282.20;1459.20;;;;;;4917199;29;20152;-67
2021/01/24 01:37:06;;;;;;;35.70;21.75;;;282.10;1484.80;;;;;;4917094;29;20047;-68
2021/01/24 01:39:31;;;;;;;37.60;22.52;;;282.00;1484.80;;;;;;4917239;29;20032;-74
2021/01/24 01:41:57;;;;;;;30.88;18.75;;;281.90;1484.80;;;;;;4916965;29;20039;-74
2021/01/24 01:44:23;;;;;;;45.28;27.33;;;282.10;1459.20;;;;;;4917198;29;20054;-74
2021/01/24 01:46:52;;;;;;;77.95;45.33;;;282.00;1484.80;;;;;;4916850;29;20032;-74
2021/01/24 01:49:18;;;;;;;74.00;42.72;;;282.10;1484.80;;;;;;4917006;29;20035;-74
2021/01/24 01:51:46;;;;;;;121.90;70.15;;;282.40;1433.60;;;;;;4916932;29;20483;-74
2021/01/24 01:54:12;;;;;;;127.85;78.45;;;282.40;1459.20;;;;;;4916894;29;20032;-75
2021/01/24 01:56:38;;;;;;;131.18;79.78;;;282.40;1459.20;;;;;;4916667;29;20499;-68
2021/01/24 01:59:03;;;;;;;129.98;78.85;;;307.20;1459.20;;;;;;4916808;29;20032;-73
2021/01/24 02:02:03;;;;;;;126.45;75.57;;;282.50;1433.60;;;;;;4916890;29;20040;-76
2021/01/24 02:04:52;;;;;;;133.23;79.35;;;282.20;1433.60;;;;;;4919450;29;20115;-75
2021/01/24 02:07:53;;;;;;;123.28;78.57;;;256.90;1510.40;;;;;;4916955;29;20032;-67
2021/01/24 02:10:38;;;;;;;124.88;79.05;;;281.70;1510.40;;;;;;4916709;29;20048;-66
2021/01/24 02:13:16;;;;;;;118.43;74.20;;;281.70;1536.00;;;;;;4916779;29;20060;-78
2021/01/24 02:15:44;;;;;;;126.78;73.60;;;281.80;1510.40;;;;;;4916933;29;20096;-70
2021/01/24 02:18:10;;;;;;;116.95;74.40;;;281.80;1510.40;;;;;;4916772;29;20021;-67
2021/01/24 02:20:39;;;;;;;123.43;75.30;;;256.60;1536.00;;;;;;4916524;29;20518;-79
2021/01/24 02:23:09;;;;;;;64.25;39.08;;;256.70;1536.00;;;;;;4916658;29;20036;-68
2021/01/24 02:25:39;;;;;;;35.13;22.98;;;256.40;1561.60;;;;;;4916726;29;20387;-68
2021/01/24 02:28:35;;;;;;;88.97;52.40;;;256.40;1536.00;;;;;;4916920;29;20376;-67
2021/01/24 02:31:02;;;;;;;114.35;66.88;;;256.90;1510.40;;;;;;4916538;29;20031;-69
2021/01/24 02:33:30;;;;;;;106.15;65.47;;;281.70;1510.40;;;;;;4916677;29;20052;-71
2021/01/24 02:35:59;;;;;;;120.88;70.35;;;281.70;1510.40;;;;;;4916503;29;20538;-72
2021/01/24 02:38:25;;;;;;;88.63;53.45;;;282.00;1484.80;;;;;;4919155;29;20187;-71
2021/01/24 02:40:52;;;;;;;85.55;52.10;;;282.00;1484.80;;;;;;4919902;29;20067;-71
2021/01/24 02:43:19;;;;;;;71.60;43.08;;;282.10;1459.20;;;;;;4920019;29;20107;-71
2021/01/24 02:45:47;;;;;;;78.68;47.55;;;282.10;1459.20;;;;;;4920105;29;20115;-71
2021/01/24 02:48:15;;;;;;;88.70;50.90;;;282.10;1459.20;;;;;;4919870;29;20469;-75
2021/01/24 02:50:42;;;;;;;98.68;56.42;;;282.00;1459.20;;;;;;4920271;29;20064;-77
2021/01/24 02:53:08;;;;;;;76.63;44.90;;;281.70;1484.80;;;;;;4919888;29;20021;-70
2021/01/24 02:55:35;;;;;;;63.85;40.83;;;281.80;1459.20;;;;;;4919634;29;20506;-78
2021/01/24 02:58:01;;;;;;;69.97;43.00;;;281.80;1459.20;;;;;;4919853;29;20543;-74
2021/01/24 03:00:28;;;;;;;76.97;46.42;;;281.80;1484.80;;;;;;4919787;29;20123;-70
2021/01/24 03:02:54;;;;;;;90.25;55.92;;;256.40;1536.00;;;;;;4919820;29;20119;-76
2021/01/24 03:05:20;;;;;;;92.63;53.65;;;256.70;1484.80;;;;;;4919572;29;20032;-77
2021/01/24 03:07:47;;;;;;;91.25;53.72;;;256.50;1510.40;;;;;;4919934;29;20034;-75
2021/01/24 03:10:13;;;;;;;88.13;52.45;;;256.50;1484.80;;;;;;4919575;29;20028;-75
2021/01/24 03:12:50;;;;;;;92.30;53.55;;;256.70;1484.80;;;;;;4919531;29;20083;-75
2021/01/24 03:15:19;;;;;;;91.40;55.97;;;256.60;1484.80;;;;;;4919431;29;20050;-74
2021/01/24 03:17:47;;;;;;;94.97;58.42;;;256.40;1510.40;;;;;;4919373;29;20060;-76
2021/01/24 03:20:14;;;;;;;95.93;59.97;;;256.20;1536.00;;;;;;4919547;29;20518;-75
2021/01/24 03:22:42;;;;;;;102.32;61.63;;;256.00;1536.00;;;;;;4919409;29;20031;-77
2021/01/24 03:25:08;;;;;;;94.70;59.38;;;230.80;1612.80;;;;;;4919458;29;20119;-69
2021/01/24 03:27:35;;;;;;;152.93;92.78;;;231.20;1587.20;;;;;;4917573;29;20408;-77
2021/01/24 03:30:01;;;;;;;112.93;67.72;;;231.00;1612.80;;;;;;4919348;29;20559;-75
2021/01/24 03:32:27;;;;;;;99.75;59.63;;;230.90;1638.40;;;;;;4919411;29;20020;-76
2021/01/24 03:34:53;;;;;;;98.57;60.10;;;231.10;1612.80;;;;;;4918125;29;20075;-68
2021/01/24 03:37:19;;;;;;;97.78;61.22;;;231.20;1587.20;;;;;;4919344;29;20031;-78
2021/01/24 03:39:45;;;;;;;103.30;63.78;;;231.00;1612.80;;;;;;4918902;29;20032;-72
2021/01/24 03:42:10;;;;;;;97.75;59.97;;;230.90;1612.80;;;;;;4918810;29;20365;-72
2021/01/24 03:44:36;;;;;;;96.15;57.40;;;230.80;1664.00;;;;;;4919137;29;20024;-71
2021/01/24 03:47:02;;;;;;;94.68;54.13;;;231.30;1587.20;;;;;;4918911;29;20066;-70
2021/01/24 03:49:28;;;;;;;56.20;34.13;;;230.90;1638.40;;;;;;4918442;29;20144;-69
2021/01/24 03:51:53;;;;;;;63.88;39.28;;;230.90;1612.80;;;;;;4918810;29;20399;-70
2021/01/24 03:54:19;;;;;;;43.20;26.85;;;230.70;1664.00;;;;;;4918780;29;20028;-74
2021/01/24 03:56:45;;;;;;;50.55;29.70;;;230.90;1612.80;;;;;;4918501;29;20156;-73
2021/01/24 03:59:10;;;;;;;60.28;40.58;;;231.20;1587.20;;;;;;4918653;29;20107;-70
2021/01/24 04:01:36;;;;;;;44.17;27.98;;;231.30;1561.60;;;;;;4918688;29;20036;-70
2021/01/24 04:04:03;;;;;;;62.25;37.75;;;256.10;1536.00;;;;;;4918525;29;20027;-76
2021/01/24 04:06:28;;;;;;;47.05;29.27;;;256.20;1510.40;;;;;;4918551;29;20028;-75
2021/01/24 04:08:54;;;;;;;30.30;17.33;;;256.20;1510.40;;;;;;4918606;29;20034;-73
2021/01/24 04:11:20;;;;;;;23.75;13.57;;;256.30;1484.80;;;;;;4918380;29;20119;-69
2021/01/24 04:13:46;;;;;;;47.58;28.98;;;231.20;1536.00;;;;;;4918571;29;20103;-69
2021/01/24 04:16:12;;;;;;;45.40;25.40;;;256.20;1510.40;;;;;;4918480;29;20028;-68
2021/01/24 04:18:38;;;;;;;42.38;26.52;;;256.10;1510.40;;;;;;4918280;29;20032;-69
2021/01/24 04:21:05;;;;;;;37.42;26.23;;;256.10;1510.40;;;;;;4918209;29;20071;-68
2021/01/24 04:23:30;;;;;;;43.22;28.65;;;256.40;1484.80;;;;;;4918274;29;20028;-75
2021/01/24 04:25:56;;;;;;;48.00;30.10;;;256.20;1510.40;;;;;;4918094;29;20087;-73
2021/01/24 04:28:22;;;;;;;44.83;28.73;;;256.40;1484.80;;;;;;4918151;29;20178;-75
2021/01/24 04:30:48;;;;;;;41.33;28.05;;;256.50;1484.80;;;;;;4918282;29;20036;-77
2021/01/24 04:33:14;;;;;;;42.75;29.00;;;256.50;1484.80;;;;;;4918140;29;20028;-70
2021/01/24 04:35:40;;;;;;;60.30;38.67;;;256.20;1510.40;;;;;;4918100;29;20032;-71
2021/01/24 04:38:05;;;;;;;52.78;34.13;;;256.20;1484.80;;;;;;4918095;29;20479;-70
2021/01/24 04:40:31;;;;;;;54.72;34.28;;;256.40;1484.80;;;;;;4917957;29;20044;-70
2021/01/24 04:42:57;;;;;;;54.63;31.65;;;231.10;1536.00;;;;;;4917756;29;20031;-71
2021/01/24 04:45:23;;;;;;;58.25;34.90;;;256.00;1510.40;;;;;;4917967;29;20032;-71
2021/01/24 04:47:51;;;;;;;60.00;35.38;;;256.20;1510.40;;;;;;4917788;29;20020;-69
2021/01/24 04:50:18;;;;;;;89.03;52.63;;;256.20;1484.80;;;;;;4917711;29;20032;-70
2021/01/24 04:52:44;;;;;;;56.90;34.03;;;231.20;1536.00;;;;;;4918049;29;20027;-71
2021/01/24 04:55:10;;;;;;;48.65;29.83;;;231.20;1536.00;;;;;;4917333;29;20051;-71
2021/01/24 04:57:36;;;;;;;58.70;35.97;;;231.20;1536.00;;;;;;4916208;29;20040;-73
2021/01/24 05:00:05;;;;;;;22.27;13.43;;;231.00;1561.60;;;;;;4917033;29;20484;-69
2021/01/24 05:02:31;;;;;;;31.73;17.77;;;231.10;1510.40;;;;;;4917571;29;20112;-76
2021/01/24 05:04:57;;;;;;;28.05;16.38;;;256.00;1459.20;;;;;;4917466;29;20111;-68
2021/01/24 05:07:23;;;;;;;54.67;31.25;;;256.40;1433.60;;;;;;4917662;29;20079;-77
2021/01/24 05:09:48;;;;;;;53.15;32.90;;;256.60;1459.20;;;;;;4917527;29;20024;-77
2021/01/24 05:12:15;;;;;;;70.55;41.35;;;256.80;1433.60;;;;;;4917616;29;20036;-75
2021/01/24 05:14:41;;;;;;;69.63;42.05;;;256.70;1433.60;;;;;;4917506;29;20483;-76
2021/01/24 05:17:07;;;;;;;78.68;44.65;;;256.90;1408.00;;;;;;4917346;29;20029;-71
2021/01/24 05:19:35;;;;;;;78.07;45.72;;;256.60;1433.60;;;;;;4917121;29;20072;-71
2021/01/24 05:22:03;;;;;;;138.93;88.32;;;256.80;1433.60;;;;;;4917244;29;20035;-72
2021/01/24 05:24:29;;;;;;;149.82;96.45;;;256.80;1408.00;;;;;;4917314;29;20446;-71
2021/01/24 05:26:55;;;;;;;95.47;59.10;;;256.90;1408.00;;;;;;4917152;29;20040;-70
2021/01/24 05:29:25;;;;;;;79.70;48.90;;;256.80;1433.60;;;;;;4917528;29;20153;-75
2021/01/24 05:31:53;;;;;;;90.95;55.47;;;231.20;1536.00;;;;;;4917334;29;20024;-74
2021/01/24 05:34:26;;;;;;;95.13;58.70;;;231.30;1510.40;;;;;;4917125;29;20027;-75
2021/01/24 05:36:52;;;;;;;105.60;62.22;;;256.20;1484.80;;;;;;4917118;29;20032;-76
2021/01/24 05:39:18;;;;;;;101.85;61.67;;;256.20;1484.80;;;;;;4916958;29;20031;-74
2021/01/24 05:41:52;;;;;;;78.95;50.90;;;256.20;1484.80;;;;;;4917127;29;20436;-70
2021/01/24 05:44:19;;;;;;;82.68;49.05;;;256.10;1484.80;;;;;;4917046;29;20080;-70
2021/01/24 05:46:46;;;;;;;78.57;49.95;;;256.00;1510.40;;;;;;4916970;29;20115;-68
2021/01/24 05:49:21;;;;;;;63.35;42.60;;;256.00;1510.40;;;;;;4916933;29;20028;-77
2021/01/24 05:51:59;;;;;;;62.78;37.42;;;256.20;1484.80;;;;;;4917034;29;20032;-74
2021/01/24 05:54:42;;;;;;;32.83;20.05;;;256.20;1484.80;;;;;;4916999;29;20028;-72
2021/01/24 05:57:10;;;;;;;40.80;23.10;;;256.60;1408.00;;;;;;4916867;29;20044;-68
2021/01/24 05:59:56;;;;;;;26.48;14.48;;;256.80;1408.00;;;;;;4916775;29;20032;-70
2021/01/24 06:02:23;;;;;;;24.30;13.70;;;256.90;1382.40;;;;;;4917143;29;20032;-71
2021/01/24 06:04:50;;;;;;;39.53;22.98;;;281.80;1356.80;;;;;;4916878;29;20024;-73
2021/01/24 06:07:17;;;;;;;40.47;23.08;;;281.70;1382.40;;;;;;4916807;29;20115;-71
2021/01/24 06:09:43;;;;;;;24.35;14.93;;;281.70;1382.40;;;;;;4916750;29;20107;-73
2021/01/24 06:12:11;;;;;;;16.33;10.10;;;281.70;1356.80;;;;;;4918922;29;20154;-73
2021/01/24 06:14:39;;;;;;;23.95;12.85;;;282.10;1331.20;;;;;;4920583;29;20523;-70
2021/01/24 06:17:20;;;;;;;16.92;10.50;;;282.00;1331.20;;;;;;4920602;29;20075;-70
2021/01/24 06:19:49;;;;;;;31.03;18.03;;;282.10;1305.60;;;;;;4920441;29;20042;-69
2021/01/24 06:22:18;;;;;;;16.20;9.25;;;282.30;1331.20;;;;;;4920354;29;20534;-76
2021/01/24 06:24:50;;;;;;;17.85;12.20;;;282.30;1280.00;;;;;;4920255;29;20112;-76
2021/01/24 06:27:21;;;;;;;35.80;26.90;;;307.20;1305.60;;;;;;4920426;29;20036;-69
2021/01/24 06:29:51;;;;;;;15.75;9.95;;;282.40;1280.00;;;;;;4920230;29;20103;-75
2021/01/24 06:32:29;;;;;;;81.70;51.42;;;307.20;1305.60;;;;;;4920534;29;20498;-77
2021/01/24 06:35:12;;;;;;;103.88;70.88;;;307.30;1305.60;;;;;;4920551;29;20036;-74
2021/01/24 06:37:45;;;;;;;35.97;25.70;;;307.40;1280.00;;;;;;4920218;29;20031;-77
2021/01/24 06:40:23;;;;;;;8.02;5.32;;;307.50;1280.00;;;;;;4920049;29;20395;-69
2021/01/24 06:42:54;;;;;;;6.88;3.75;;;307.60;1254.40;;;;;;4919999;29;20021;-68
2021/01/24 06:45:25;;;;;;;7.53;5.07;;;307.60;1254.40;;;;;;4920195;29;20428;-70
2021/01/24 06:47:53;;;;;;;7.07;4.78;;;307.60;1254.40;;;;;;4919887;29;20267;-73
2021/01/24 06:50:45;;;;;;;8.60;5.70;;;307.60;1254.40;;;;;;4920255;29;20024;-72
2021/01/24 06:53:21;;;;;;;79.57;52.30;;;307.60;1228.80;;;;;;4919987;29;20020;-73
2021/01/24 06:55:55;;;;;;;21.92;13.75;;;307.80;1228.80;;;;;;4919611;29;20095;-72
2021/01/24 06:58:34;;;;;;;9.15;5.30;;;307.90;1228.80;;;;;;4919687;29;20135;-73
2021/01/24 07:01:26;;;;;;;16.92;8.63;;;308.10;1177.60;;;;;;4919627;29;20091;-69
2021/01/24 07:04:16;;;;;;;21.15;13.10;;;332.80;1228.80;;;;;;4919841;29;20476;-74
2021/01/24 07:06:42;;;;;;;14.18;8.10;;;332.80;1203.20;;;;;;4919594;29;20028;-74
2021/01/24 07:09:27;;;;;;;27.33;17.13;;;332.90;1203.20;;;;;;4919663;29;20111;-74
2021/01/24 07:12:04;;;;;;;14.68;8.15;;;308.10;1203.20;;;;;;4919641;29;20028;-75
2021/01/24 07:14:35;;;;;;;31.42;19.65;;;332.90;1203.20;;;;;;4919473;29;20020;-75
2021/01/24 07:17:07;;;;;;;23.55;11.63;;;332.80;1228.80;;;;;;4919603;29;20032;-75
2021/01/24 07:19:37;;;;;;;15.60;7.88;;;333.10;1203.20;;;;;;4919452;29;20152;-75
2021/01/24 07:22:05;;;;;;;12.65;7.53;;;332.90;1203.20;;;;;;4919302;29;20044;-75
2021/01/24 07:24:31;;;;;;;18.67;12.90;;;333.00;1177.60;;;;;;4918476;29;20092;-75
2021/01/24 07:26:58;;;;;;;21.98;12.48;;;332.90;1203.20;;;;;;4919344;29;20036;-69
2021/01/24 07:29:28;;;;;;;17.58;12.05;;;333.10;1203.20;;;;;;4919707;29;20053;-81
2021/01/24 07:31:54;;;;;;;24.73;13.75;;;333.10;1177.60;;;;;;4919217;29;20028;-68
2021/01/24 07:34:24;;;;;;;19.05;11.38;;;333.20;1177.60;;;;;;4917900;29;20028;-80
2021/01/24 07:36:51;;;;;;;20.83;11.02;;;333.30;1177.60;;;;;;4919217;29;20036;-79
2021/01/24 07:39:19;;;;;;;22.35;13.75;;;333.20;1177.60;;;;;;4919139;29;20033;-78
2021/01/24 07:41:45;;;;;;;74.15;26.05;;;333.20;1177.60;;;;;;4919032;29;20039;-74
2021/01/24 07:44:11;;;;;;;61.90;34.50;;;333.40;1177.60;;;;;;4919023;29;20103;-76
2021/01/24 07:46:37;;;;;;;52.10;30.95;;;333.50;1177.60;;;;;;4918926;29;20020;-77
2021/01/24 07:49:03;;;;;;;63.55;38.20;;;333.60;1177.60;;;;;;4918919;29;20043;-73
2021/01/24 07:51:29;;;;;;;23.10;14.60;;;333.60;1177.60;;;;;;4918972;29;20083;-72
2021/01/24 07:53:55;;;;;;;37.55;25.95;;;333.60;1177.60;;;;;;4918673;29;20032;-70
2021/01/24 07:56:22;;;;;;;37.88;21.65;;;333.60;1177.60;;;;;;4918621;29;20571;-75
2021/01/24 07:58:48;;;;;;;49.45;22.75;;;333.70;1152.00;;;;;;4917441;29;20119;-74
2021/01/24 08:01:15;;;;;;;71.50;22.10;;;333.70;1152.00;;;;;;4918628;29;20059;-78
2021/01/24 08:03:42;;;;;;;44.45;26.63;;;333.70;1152.00;;;;;;4918873;29;20032;-74
2021/01/24 08:06:12;;;;;;;41.63;20.58;;;358.50;1152.00;;;;;;4918666;29;20382;-78
2021/01/24 08:08:39;;;;;;;42.65;18.63;;;358.50;1152.00;;;;;;4918744;29;20032;-78
2021/01/24 08:11:05;;;;;;;59.33;27.02;;;358.80;1126.40;;;;;;4918629;29;20431;-76
2021/01/24 08:13:32;;;;;;;66.72;23.20;;;359.10;1126.40;;;;;;4918538;29;20480;-76
2021/01/24 08:16:00;;;;;;;57.47;24.30;;;384.00;1100.80;;;;;;4918355;29;20068;-76
2021/01/24 08:18:30;;;;;;;36.92;20.88;;;384.00;1075.20;;;;;;4918280;29;20434;-77
2021/01/24 08:20:57;;;;;;;52.05;14.98;;;384.40;1049.60;;;;;;4918412;29;20044;-76
2021/01/24 08:23:24;;;;;;;34.13;16.70;;;384.70;1024.00;;;;;;4918119;29;20036;-76
2021/01/24 08:26:00;;;;;;;55.60;27.17;;;409.60;1024.00;;;;;;4918141;29;20034;-71
2021/01/24 08:28:26;;;;;;;35.38;22.23;;;409.70;1024.00;;;;;;4917903;29;20039;-69
2021/01/24 08:30:52;;;;;;;49.55;22.15;;;410.10;998.40;;;;;;4917960;29;20539;-76
2021/01/24 08:33:19;;;;;;;32.85;19.08;;;410.30;972.80;;;;;;4916595;29;20128;-72
2021/01/24 08:35:47;;;;;;;36.58;17.38;;;410.50;947.20;;;;;;4917838;29;20503;-73
2021/01/24 08:38:13;;;;;;;16.13;6.97;;;435.30;947.20;;;;;;4918124;29;20036;-73
2021/01/24 08:40:40;;;;;;;21.20;13.35;;;435.30;921.60;;;;;;4917743;29;20044;-73
2021/01/24 08:43:07;;;;;;;24.25;14.05;;;435.50;921.60;;;;;;4917680;29;20079;-75
2021/01/24 08:45:35;;;;;;;31.35;16.00;;;435.60;896.00;;;;;;4916432;29;20060;-71
2021/01/24 08:48:05;;;;;;;16.25;8.68;;;435.80;896.00;;;;;;4917666;29;20022;-72
2021/01/24 08:50:31;;;;;;;24.05;12.23;;;435.90;870.40;;;;;;4917804;29;20103;-73
2021/01/24 08:52:59;;;;;;;39.13;13.00;;;436.10;870.40;;;;;;4917454;29;20024;-73
2021/01/24 08:55:25;;;;;;;12.98;7.07;;;460.90;896.00;;;;;;4917349;29;20063;-72
2021/01/24 08:57:50;;;;;;;24.63;12.40;;;461.20;844.80;;;;;;4916291;29;20099;-73
2021/01/24 09:00:17;;;;;;;18.10;9.77;;;461.30;844.80;;;;;;4916908;29;20036;-73
2021/01/24 09:02:43;;;;;;;15.98;9.65;;;461.30;819.20;;;;;;4917534;29;20506;-70
2021/01/24 09:05:14;;;;;;;19.75;10.32;;;461.40;819.20;;;;;;4917531;29;20032;-72
2021/01/24 09:07:45;;;;;;;17.13;6.78;;;461.30;819.20;;;;;;4917383;29;20542;-70
2021/01/24 09:10:32;;;;;;;21.83;12.70;;;461.40;819.20;;;;;;4917461;29;20494;-72
2021/01/24 09:13:03;;;;;;;19.15;10.10;;;461.70;819.20;;;;;;4917488;29;20270;-71
2021/01/24 09:15:33;;;;;;;19.83;11.38;;;487.30;742.40;;;;;;4917399;29;20470;-71
2021/01/24 09:18:00;;;;;;;17.38;8.77;;;563.60;691.20;;;;;;4917298;29;20027;-71
2021/01/24 09:20:27;;;;;;;12.88;7.72;;;563.30;691.20;;;;;;4917100;29;20107;-70
2021/01/24 09:22:53;;;;;;;31.50;19.08;;;615.10;563.20;;;;;;4917343;29;20503;-73
2021/01/24 09:25:19;;;;;;;17.00;10.18;;;;;;;;;;4917070;29;20451;-72
2021/01/24 09:27:45;;;;;;;29.85;13.60;;;768.50;384.00;;;;;;4917130;29;20111;-72
2021/01/24 09:30:13;;;;;;;28.55;13.80;;;794.00;384.00;;;;;;4917164;29;20468;-71
2021/01/24 09:32:39;;;;;;;13.43;6.82;;;794.50;358.40;;;;;;4917062;29;20487;-71
2021/01/24 09:35:06;;;;;;;8.88;6.05;;;768.00;435.20;;;;;;4917280;29;20040;-71
2021/01/24 09:37:32;;;;;;;18.35;7.63;;;717.20;435.20;;;;;;4916509;29;20055;-76
2021/01/24 09:39:58;;;;;;;22.50;12.63;;;665.80;512.00;;;;;;4916821;29;20087;-77
2021/01/24 09:42:24;;;;;;;23.17;10.23;;;640.30;512.00;;;;;;4917194;29;20024;-79
2021/01/24 09:44:50;;;;;;;19.20;10.35;;;615.10;537.60;;;;;;4917029;29;20031;-74
2021/01/24 09:47:16;;;;;;;18.13;9.80;;;614.80;537.60;;;;;;4921427;29;20032;-72
2021/01/24 09:49:42;;;;;;;37.15;21.52;;;614.90;537.60;;;;;;4922606;29;20107;-72
2021/01/24 09:52:08;;;;;;;14.68;9.93;;;614.90;563.20;;;;;;4922876;29;20509;-72
2021/01/24 09:54:33;;;;;;;29.70;20.30;;;640.00;512.00;;;;;;4921297;29;20028;-70
2021/01/24 09:56:59;;;;;;;34.95;22.50;;;666.20;486.40;;;;;;4920757;29;20142;-70
2021/01/24 09:59:25;;;;;;;21.05;14.75;;;666.30;486.40;;;;;;4922015;29;20066;-71
2021/01/24 10:01:50;;;;;;;17.13;11.77;;;640.90;486.40;;;;;;4922294;29;20107;-69
2021/01/24 10:04:16;;;;;;;21.48;10.15;;;717.40;435.20;;;;;;4922772;29;20106;-71
2021/01/24 10:06:42;;;;;;;12.27;7.32;;;793.60;384.00;;;;;;4922534;29;20035;-72
2021/01/24 10:09:08;;;;;;;24.70;14.63;;;793.90;384.00;;;;;;4922469;29;20033;-71
2021/01/24 10:11:34;;;;;;;11.73;8.13;;;794.40;358.40;;;;;;4922223;29;20028;-71
2021/01/24 10:14:00;;;;;;;8.32;4.85;;;794.00;358.40;;;;;;4921538;29;20103;-71
2021/01/24 10:16:25;;;;;;;16.20;6.13;;;743.10;384.00;;;;;;4922873;29;20051;-72
2021/01/24 10:18:51;;;;;;;24.70;20.48;;;742.60;409.60;;;;;;4937062;29;20111;-70
2021/01/24 10:21:17;;;;;;;15.27;10.13;;;742.90;460.80;;;;;;4922184;29;20044;-71
2021/01/24 10:23:43;;;;;;;16.13;11.52;;;717.70;435.20;;;;;;4925424;29;20019;-70
2021/01/24 10:26:09;;;;;;;15.30;11.00;;;768.50;384.00;;;;;;4923202;29;20028;-71
2021/01/24 10:28:35;;;;;;;12.10;9.55;;;819.80;307.20;;;;;;4941220;29;20079;-72
2021/01/24 10:31:01;;;;;;;16.52;14.68;;;845.20;307.20;;;;;;4939433;29;20031;-71
2021/01/24 10:33:27;;;;;;;11.30;10.30;;;896.00;256.00;;;;;;4922108;29;20028;-75
2021/01/24 10:35:52;;;;;;;8.82;7.00;;;871.30;256.00;;;;;;4921872;29;20443;-74
2021/01/24 10:38:20;;;;;;;31.27;16.55;;;896.70;256.00;;;;;;4922044;29;20031;-73
2021/01/24 10:40:46;;;;;;;24.60;13.00;;;896.90;256.00;;;;;;4935106;29;20062;-73
2021/01/24 10:43:12;;;;;;;19.92;12.27;;;845.30;307.20;;;;;;4936892;29;20483;-75
2021/01/24 10:45:38;;;;;;;11.60;6.43;;;819.50;332.80;;;;;;4921574;29;20060;-75
2021/01/24 10:48:06;;;;;;;18.02;12.95;;;743.20;409.60;;;;;;4921998;29;20028;-74
2021/01/24 10:50:32;;;;;;;83.82;23.23;;;742.50;435.20;;;;;;4921999;29;20105;-74
2021/01/24 10:52:58;;;;;;;47.00;25.17;;;716.80;486.40;;;;;;4922146;29;20479;-74
2021/01/24 10:55:24;;;;;;;50.40;23.05;;;691.70;460.80;;;;;;4921640;29;20079;-74
2021/01/24 10:57:50;;;;;;;37.30;23.80;;;666.00;512.00;;;;;;4919744;29;20032;-74
2021/01/24 11:00:17;;;;;;;47.05;31.33;;;640.70;563.20;;;;;;4918988;29;20028;-73
2021/01/24 11:02:43;;;;;;;30.05;22.00;;;640.50;537.60;;;;;;4919121;29;20028;-73
2021/01/24 11:05:09;;;;;;;32.60;18.15;;;640.20;537.60;;;;;;4919280;29;20024;-74
2021/01/24 11:07:36;;;;;;;30.58;21.02;;;665.90;537.60;;;;;;4918925;29;20036;-74
2021/01/24 11:10:03;;;;;;;15.52;11.50;;;;;;;;;;4919152;29;20031;-74
2021/01/24 11:12:29;;;;;;;13.55;8.05;;;716.80;460.80;;;;;;4918800;29;20025;-74
2021/01/24 11:14:55;;;;;;;20.27;11.45;;;666.50;486.40;;;;;;4918911;29;20038;-73
2021/01/24 11:17:20;;;;;;;23.27;13.25;;;665.90;512.00;;;;;;4918702;29;20108;-74
2021/01/24 11:19:50;;;;;;;11.73;7.68;;;665.70;512.00;;;;;;4918841;29;20056;-74
2021/01/24 11:22:16;;;;;;;15.55;9.13;;;640.60;537.60;;;;;;4918644;29;20028;-73
2021/01/24 11:24:42;;;;;;;11.43;6.93;;;640.20;537.60;;;;;;4918808;29;20424;-74
2021/01/24 11:27:08;;;;;;;30.92;15.60;;;640.00;563.20;;;;;;4918990;29;20060;-73
2021/01/24 11:29:34;;;;;;;20.27;12.27;;;615.00;563.20;;;;;;4918596;29;20020;-73
2021/01/24 11:32:01;;;;;;;12.75;8.80;;;614.40;588.80;;;;;;4918196;29;20028;-74
2021/01/24 11:34:26;;;;;;;18.27;11.73;;;589.40;614.40;;;;;;4918209;29;20032;-73
2021/01/24 11:36:52;;;;;;;12.13;7.82;;;589.10;640.00;;;;;;4918598;29;20094;-73
2021/01/24 11:39:18;;;;;;;23.20;11.13;;;563.90;665.60;;;;;;4918314;29;20115;-73
2021/01/24 11:41:44;;;;;;;10.48;6.90;;;563.60;665.60;;;;;;4918288;29;20043;-73
2021/01/24 11:44:09;;;;;;;28.13;14.13;;;563.30;716.80;;;;;;4916918;29;20033;-73
2021/01/24 11:46:35;;;;;;;22.00;13.70;;;538.50;691.20;;;;;;4918381;29;20039;-73
2021/01/24 11:49:01;;;;;;;11.07;7.13;;;538.00;716.80;;;;;;4918112;29;20151;-72
2021/01/24 11:51:27;;;;;;;31.92;18.65;;;537.90;716.80;;;;;;4918318;29;20024;-72
2021/01/24 11:53:53;;;;;;;30.92;15.38;;;512.80;716.80;;;;;;4918102;29;20494;-72
2021/01/24 11:56:20;;;;;;;34.97;20.10;;;512.70;716.80;;;;;;4916588;29;20511;-73
2021/01/24 11:58:46;;;;;;;69.68;37.75;;;512.70;716.80;;;;;;4918293;29;20151;-73
2021/01/24 12:01:13;;;;;;;39.22;22.65;;;512.70;716.80;;;;;;4917725;29;20032;-73
2021/01/24 12:03:38;;;;;;;37.20;19.95;;;512.40;742.40;;;;;;4918112;29;20398;-72
2021/01/24 12:06:04;;;;;;;25.58;16.85;;;512.40;742.40;;;;;;4917992;29;20028;-72
2021/01/24 12:08:30;;;;;;;22.85;15.02;;;512.10;768.00;;;;;;4918021;29;20076;-72